Time;durP1;ratioP1;P1;durP2;ratioP2;P2;SDS_P1;SDS_P2;PMS_P1;PMS_P2;Temp;Humidity;BMP_temperature;BMP_pressure;BME280_temperature;BME280_humidity;BME280_pressure;Samples;Min_cycle;Max_cycle;Signal;HPM_P1;HPM_P2
2023/09/05 00:01:56;;;;;;;3.58;2.53;;;;;;;18.38;79.43;101866.63;4958558;28;20149;-74
2023/09/05 00:04:24;;;;;;;5.65;2.85;;;;;;;18.35;79.31;101874.78;4959083;28;20067;-75
2023/09/05 00:06:52;;;;;;;5.85;3.15;;;;;;;18.33;79.73;101865.09;4954326;28;20054;-75
2023/09/05 00:09:19;;;;;;;7.05;3.28;;;;;;;18.27;79.83;101868.94;4949285;28;20078;-74
2023/09/05 00:11:46;;;;;;;6.43;3.15;;;;;;;18.25;79.84;101865.47;4944847;28;20043;-74
2023/09/05 00:14:17;;;;;;;5.00;3.00;;;;;;;18.23;79.94;101862.00;4955974;28;20039;-73
2023/09/05 00:16:44;;;;;;;3.50;2.40;;;;;;;18.22;80.21;101860.25;4955652;28;20054;-74
2023/09/05 00:19:12;;;;;;;5.45;3.00;;;;;;;18.17;80.09;101855.13;4955349;28;20415;-74
2023/09/05 00:21:39;;;;;;;5.35;3.08;;;;;;;18.13;80.36;101861.56;4956047;28;20071;-74
2023/09/05 00:24:31;;;;;;;4.35;2.95;;;;;;;18.10;80.61;101851.91;4941907;28;20046;-75
2023/09/05 00:27:09;;;;;;;4.07;2.67;;;;;;;18.06;80.56;101852.97;4961478;28;20558;-76
2023/09/05 00:29:39;;;;;;;4.68;2.75;;;;;;;18.03;80.63;101858.44;4953671;28;21135;-75
2023/09/05 00:32:09;;;;;;;6.30;2.90;;;;;;;18.01;80.81;101860.31;4953076;28;20044;-76
2023/09/05 00:34:38;;;;;;;4.30;2.70;;;;;;;17.97;80.70;101866.72;4954808;28;20071;-75
2023/09/05 00:37:09;;;;;;;6.97;3.17;;;;;;;17.87;80.87;101873.38;4935278;28;20043;-76
2023/09/05 00:39:40;;;;;;;7.03;3.20;;;;;;;17.73;81.39;101866.84;4958234;28;20142;-76
2023/09/05 00:42:10;;;;;;;4.10;3.03;;;;;;;17.62;81.77;101872.69;4946846;28;20117;-75
2023/09/05 00:44:37;;;;;;;4.80;2.88;;;;;;;17.53;82.06;101873.94;4952750;28;20551;-75
2023/09/05 00:47:05;;;;;;;5.10;3.00;;;;;;;17.45;82.53;101868.06;4949030;28;20031;-76
2023/09/05 00:49:39;;;;;;;5.80;3.58;;;;;;;17.40;83.39;101875.38;4943153;28;20418;-75
2023/09/05 00:52:09;;;;;;;6.85;3.20;;;;;;;17.38;83.40;101874.59;4944243;28;20059;-75
2023/09/05 00:54:37;;;;;;;5.88;3.50;;;;;;;17.39;83.49;101871.00;4951042;28;20130;-75
2023/09/05 00:57:05;;;;;;;5.88;3.30;;;;;;;17.40;83.24;101883.38;4942384;28;20050;-75
2023/09/05 00:59:33;;;;;;;7.10;3.40;;;;;;;17.35;83.31;101885.38;4955011;28;20047;-74
2023/09/05 01:02:01;;;;;;;6.47;3.20;;;;;;;17.29;83.24;101894.50;4952444;28;20047;-75
2023/09/05 01:04:32;;;;;;;5.50;3.13;;;;;;;17.29;83.56;101896.31;4939437;28;20042;-75
2023/09/05 01:07:27;;;;;;;4.68;3.15;;;;;;;17.26;83.54;101902.63;4940721;28;20728;-75
2023/09/05 01:10:10;;;;;;;6.00;2.95;;;;;;;17.19;83.70;101904.69;4948943;28;20070;-75
2023/09/05 01:12:38;;;;;;;5.35;3.00;;;;;;;17.14;84.30;101895.16;4935522;28;20044;-75
2023/09/05 01:15:07;;;;;;;6.43;2.90;;;;;;;17.10;84.90;101905.03;4948767;28;20059;-75
2023/09/05 01:17:35;;;;;;;5.65;3.22;;;;;;;17.09;84.75;101903.34;4959120;28;20046;-75
2023/09/05 01:20:07;;;;;;;6.10;3.10;;;;;;;17.08;84.97;101897.13;4958570;28;20585;-75
2023/09/05 01:23:02;;;;;;;5.95;3.17;;;;;;;17.08;84.84;101899.78;4937778;28;20067;-75
2023/09/05 01:25:30;;;;;;;;;;;;;;;17.04;84.72;101902.66;4949644;28;20054;-75
2023/09/05 01:28:00;;;;;;;4.97;2.85;;;;;;;17.01;84.35;101906.31;4957932;28;20371;-75
2023/09/05 01:30:28;;;;;;;4.38;3.13;;;;;;;16.94;84.71;101902.13;4958065;28;20606;-75
2023/09/05 01:32:55;;;;;;;5.82;3.10;;;;;;;16.90;85.14;101903.19;4959675;28;20050;-75
2023/09/05 01:35:22;;;;;;;4.63;2.95;;;;;;;16.84;85.48;101900.78;4952097;28;20039;-75
2023/09/05 01:37:50;;;;;;;5.63;2.90;;;;;;;16.78;85.72;101893.88;4951837;28;20043;-76
2023/09/05 01:40:17;;;;;;;5.40;3.00;;;;;;;16.73;86.08;101894.06;4937141;28;20497;-75
2023/09/05 01:42:44;;;;;;;8.82;3.13;;;;;;;16.72;86.51;101897.66;4959725;28;20035;-75
2023/09/05 01:45:11;;;;;;;4.88;2.72;;;;;;;16.73;86.34;101895.84;4957716;28;20055;-75
2023/09/05 01:47:38;;;;;;;5.03;2.83;;;;;;;16.73;85.91;101890.53;4957027;28;20050;-75
2023/09/05 01:50:06;;;;;;;7.20;2.85;;;;;;;16.69;85.75;101889.78;4954966;28;20047;-75
2023/09/05 01:52:33;;;;;;;5.32;2.70;;;;;;;16.63;86.15;101883.84;4956979;28;20050;-75
2023/09/05 01:55:00;;;;;;;4.60;2.70;;;;;;;16.59;86.52;101891.94;4957912;28;20531;-75
2023/09/05 01:57:27;;;;;;;4.13;3.00;;;;;;;16.60;86.45;101888.34;4948866;28;20046;-75
2023/09/05 01:59:54;;;;;;;4.65;2.78;;;;;;;16.58;86.38;101887.53;4956879;28;20587;-75
2023/09/05 02:02:21;;;;;;;5.88;3.30;;;;;;;16.58;86.70;101887.53;4964522;28;20059;-76
2023/09/05 02:04:49;;;;;;;6.88;3.10;;;;;;;16.57;86.93;101882.28;4956006;28;20122;-76
2023/09/05 02:07:18;;;;;;;5.88;3.08;;;;;;;16.58;86.82;101876.03;4939770;28;20125;-76
2023/09/05 02:09:45;;;;;;;6.78;3.55;;;;;;;16.61;86.81;101883.91;4952314;28;20043;-75
2023/09/05 02:12:12;;;;;;;3.63;2.70;;;;;;;16.62;86.75;101880.31;4960080;28;20044;-75
2023/09/05 02:14:45;;;;;;;5.18;3.17;;;;;;;16.63;86.25;101873.19;4961792;28;20546;-76
2023/09/05 02:17:18;;;;;;;4.07;2.80;;;;;;;16.65;86.31;101872.19;4948590;28;20046;-75
2023/09/05 02:19:45;;;;;;;3.47;3.00;;;;;;;16.59;86.51;101867.97;4949519;28;20074;-76
2023/09/05 02:22:12;;;;;;;5.20;3.00;;;;;;;16.58;86.67;101860.91;4959961;28;20047;-75
2023/09/05 02:24:39;;;;;;;5.18;3.10;;;;;;;16.58;87.00;101871.56;4957840;28;20046;-76
2023/09/05 02:27:06;;;;;;;6.32;3.30;;;;;;;16.57;86.71;101860.97;4941977;28;20067;-73
2023/09/05 02:29:34;;;;;;;5.07;3.22;;;;;;;16.57;86.49;101871.63;4936816;28;20132;-74
2023/09/05 02:32:03;;;;;;;4.72;2.90;;;;;;;16.58;86.69;101870.69;4959784;28;20043;-74
2023/09/05 02:34:30;;;;;;;4.22;2.95;;;;;;;16.59;86.63;101875.97;4961729;28;20062;-74
2023/09/05 02:36:59;;;;;;;5.10;2.75;;;;;;;16.61;86.72;101875.91;4957779;28;20046;-76
2023/09/05 02:39:27;;;;;;;4.72;3.00;;;;;;;16.61;86.31;101871.44;4951152;28;20514;-77
2023/09/05 02:41:55;;;;;;;5.18;3.00;;;;;;;16.62;86.00;101875.00;4955337;28;20047;-78
2023/09/05 02:44:22;;;;;;;5.97;3.17;;;;;;;16.63;86.13;101873.19;4961439;28;20047;-78
2023/09/05 02:46:51;;;;;;;5.45;2.75;;;;;;;16.61;85.90;101874.09;4962096;28;20051;-76
2023/09/05 02:49:18;;;;;;;6.53;2.97;;;;;;;16.60;85.78;101880.34;4961881;28;20051;-76
2023/09/05 02:51:46;;;;;;;5.25;2.70;;;;;;;16.60;86.01;101879.50;4940285;29;20055;-75
2023/09/05 02:54:13;;;;;;;3.67;2.92;;;;;;;16.60;86.16;101869.72;4954688;28;20050;-77
2023/09/05 02:56:40;;;;;;;5.53;3.05;;;;;;;16.59;85.85;101870.63;4963897;28;20062;-77
2023/09/05 02:59:07;;;;;;;4.43;3.20;;;;;;;16.58;85.98;101878.69;4946710;28;20714;-77
2023/09/05 03:01:34;;;;;;;6.03;3.17;;;;;;;16.55;85.82;101871.69;4958776;28;20134;-77
2023/09/05 03:04:01;;;;;;;4.45;2.80;;;;;;;16.57;85.83;101871.63;4954355;28;20127;-77
2023/09/05 03:06:29;;;;;;;4.63;2.90;;;;;;;16.51;85.60;101870.06;4956358;28;20094;-77
2023/09/05 03:08:56;;;;;;;6.05;3.15;;;;;;;16.43;85.47;101873.03;4936023;28;20045;-76
2023/09/05 03:11:23;;;;;;;6.20;3.08;;;;;;;16.34;85.69;101876.03;4953753;28;20039;-75
2023/09/05 03:13:50;;;;;;;6.45;3.25;;;;;;;16.27;85.97;101874.53;4958303;28;20039;-75
2023/09/05 03:16:18;;;;;;;4.55;3.30;;;;;;;16.22;nan;101872.06;4957218;28;20117;-75
2023/09/05 03:18:48;;;;;;;4.03;2.80;;;;;;;16.13;85.89;101873.25;4962905;28;20039;-75
2023/09/05 03:21:16;;;;;;;6.38;2.90;;;;;;;16.07;86.68;101872.66;4949263;28;20043;-74
2023/09/05 03:23:44;;;;;;;4.60;3.00;;;;;;;16.06;86.47;101873.56;4925913;28;20055;-74
2023/09/05 03:26:11;;;;;;;5.20;3.15;;;;;;;16.05;87.30;101871.84;4961047;28;20050;-74
2023/09/05 03:28:41;;;;;;;6.85;3.70;;;;;;;16.08;87.45;101869.94;4948861;28;20079;-75
2023/09/05 03:31:12;;;;;;;4.78;2.95;;;;;;;16.06;87.35;101870.91;4922340;28;20138;-75
2023/09/05 03:33:39;;;;;;;8.93;3.03;;;;;;;16.05;87.71;101867.38;4952983;28;20093;-75
2023/09/05 03:36:08;;;;;;;7.57;3.08;;;;;;;16.05;87.91;101864.72;4944398;28;20488;-76
2023/09/05 03:38:36;;;;;;;5.50;3.30;;;;;;;16.02;87.91;101869.28;4945574;28;20109;-77
2023/09/05 03:41:03;;;;;;;4.95;3.22;;;;;;;15.93;88.30;101867.81;4962366;28;20052;-77
2023/09/05 03:43:30;;;;;;;5.35;3.00;;;;;;;15.88;89.01;101867.97;4963006;28;20053;-76
2023/09/05 03:45:57;;;;;;;4.30;3.03;;;;;;;15.89;89.26;101863.56;4941398;28;20047;-76
2023/09/05 03:48:25;;;;;;;7.68;3.15;;;;;;;15.93;88.99;101866.03;4956895;28;20137;-76
2023/09/05 03:50:55;;;;;;;5.57;3.60;;;;;;;15.92;88.81;101856.31;4937316;28;20063;-75
2023/09/05 03:53:22;;;;;;;4.65;3.30;;;;;;;15.92;88.70;101861.63;4912556;29;20078;-76
2023/09/05 03:55:49;;;;;;;6.88;3.08;;;;;;;15.93;89.25;101862.50;4952859;28;20571;-76
2023/09/05 03:58:16;;;;;;;5.28;3.10;;;;;;;15.94;89.00;101859.81;4955352;28;20122;-76
2023/09/05 04:00:45;;;;;;;5.22;3.42;;;;;;;15.95;88.54;101852.69;4944244;28;20462;-76
2023/09/05 04:03:13;;;;;;;4.10;3.17;;;;;;;15.94;88.90;101851.81;4953405;28;20038;-75
2023/09/05 04:05:40;;;;;;;4.70;3.60;;;;;;;15.97;89.29;101857.00;4956970;28;20112;-75
2023/09/05 04:08:09;;;;;;;5.53;3.60;;;;;;;16.00;88.90;101850.72;4948454;28;20053;-75
2023/09/05 04:10:37;;;;;;;6.03;3.60;;;;;;;16.01;88.92;101855.13;4949179;28;20093;-76
2023/09/05 04:13:04;;;;;;;7.53;3.78;;;;;;;16.01;88.49;101849.81;4951870;28;20050;-75
2023/09/05 04:15:32;;;;;;;6.80;3.92;;;;;;;16.01;88.64;101847.16;4955468;28;20102;-76
2023/09/05 04:17:59;;;;;;;6.60;3.70;;;;;;;16.01;88.68;101846.25;4954265;28;20062;-75
2023/09/05 04:20:31;;;;;;;5.45;3.38;;;;;;;16.03;88.52;101845.28;4949562;28;20039;-75
2023/09/05 04:22:58;;;;;;;6.80;4.20;;;;;;;16.03;88.29;101849.75;4932243;28;20434;-76
2023/09/05 04:25:27;;;;;;;5.57;3.60;;;;;;;16.05;88.34;101846.09;4959867;28;20678;-76
2023/09/05 04:27:54;;;;;;;4.78;3.85;;;;;;;16.03;88.37;101847.94;4961755;28;20743;-76
2023/09/05 04:30:21;;;;;;;4.97;3.95;;;;;;;16.04;87.99;101848.81;4954300;28;20047;-77
2023/09/05 04:32:49;;;;;;;6.25;3.85;;;;;;;16.04;88.18;101847.00;4960096;28;20511;-77
2023/09/05 04:35:17;;;;;;;6.07;4.07;;;;;;;16.06;88.04;101847.81;4963607;28;20132;-79
2023/09/05 04:37:52;;;;;;;5.82;4.50;;;;;;;16.11;87.76;101847.66;4937134;28;20078;-76
2023/09/05 04:40:20;;;;;;;6.53;4.35;;;;;;;16.09;87.88;101853.03;4957858;28;20039;-77
2023/09/05 04:42:48;;;;;;;6.38;4.57;;;;;;;16.08;87.30;101853.06;4945496;28;20050;-77
2023/09/05 04:45:15;;;;;;;4.68;4.18;;;;;;;16.08;87.68;101856.63;4943660;28;20437;-77
2023/09/05 04:47:43;;;;;;;7.20;4.32;;;;;;;16.08;87.80;101845.09;4961530;28;20035;-75
2023/09/05 04:50:10;;;;;;;5.30;4.47;;;;;;;16.05;87.54;101850.56;4960628;28;20558;-76
2023/09/05 04:52:37;;;;;;;6.03;4.50;;;;;;;16.03;87.89;101844.41;4946560;28;20066;-75
2023/09/05 04:55:05;;;;;;;6.82;4.72;;;;;;;16.02;87.95;101848.88;4947999;28;20114;-76
2023/09/05 04:57:32;;;;;;;6.70;4.47;;;;;;;16.01;88.10;101854.25;4949591;28;20050;-77
2023/09/05 04:59:59;;;;;;;6.80;4.22;;;;;;;16.02;88.11;101848.00;4942215;28;20058;-76
2023/09/05 05:02:28;;;;;;;6.00;3.88;;;;;;;16.12;88.28;101858.25;4959408;28;20043;-72
2023/09/05 05:04:55;;;;;;;8.52;4.38;;;;;;;16.23;87.62;101848.97;4942316;28;20099;-72
2023/09/05 05:07:23;;;;;;;6.25;4.68;;;;;;;16.31;87.29;101854.88;4949353;28;20073;-72
2023/09/05 05:09:50;;;;;;;6.18;4.53;;;;;;;16.33;86.76;101847.69;4951245;28;20073;-73
2023/09/05 05:12:17;;;;;;;6.07;4.30;;;;;;;16.39;86.65;101854.56;4969964;28;20383;-72
2023/09/05 05:14:44;;;;;;;8.40;4.80;;;;;;;16.46;85.98;101861.41;4953043;28;20428;-72
2023/09/05 05:17:12;;;;;;;8.90;4.50;;;;;;;17.17;83.54;101861.25;4977594;28;20039;-72
2023/09/05 05:19:41;;;;;;;6.55;4.15;;;;;;;18.52;79.03;101851.78;4955421;28;20395;-72
2023/09/05 05:22:10;;;;;;;4.88;3.95;;;;;;;19.38;74.77;101850.19;4949283;28;20456;-72
2023/09/05 05:24:37;;;;;;;5.55;3.80;;;;;;;18.98;74.42;101851.31;4935588;29;20047;-72
2023/09/05 05:27:06;;;;;;;5.88;4.18;;;;;;;18.13;76.47;101842.88;4951974;28;20451;-71
2023/09/05 05:29:33;;;;;;;4.88;4.00;;;;;;;17.56;78.50;101848.06;4936305;28;20438;-71
2023/09/05 05:32:01;;;;;;;5.93;4.05;;;;;;;17.15;80.42;101856.91;4918892;28;20074;-71
2023/09/05 05:34:31;;;;;;;5.30;4.30;;;;;;;16.89;81.59;101857.00;4950697;28;20555;-71
2023/09/05 05:36:58;;;;;;;5.28;4.00;;;;;;;16.71;82.52;101850.66;4954090;28;20051;-71
2023/09/05 05:39:26;;;;;;;6.40;4.32;;;;;;;16.60;83.08;101852.88;4934342;28;20047;-71
2023/09/05 05:41:53;;;;;;;5.30;3.85;;;;;;;16.53;83.79;101856.72;4952308;28;20130;-72
2023/09/05 05:44:20;;;;;;;8.55;3.75;;;;;;;16.49;84.31;101852.44;4947384;28;20051;-71
2023/09/05 05:46:47;;;;;;;7.07;3.78;;;;;;;16.45;84.58;101860.53;4954437;28;20039;-71
2023/09/05 05:49:14;;;;;;;4.63;3.63;;;;;;;16.48;84.99;101861.34;4946381;28;20050;-71
2023/09/05 05:51:41;;;;;;;7.35;3.85;;;;;;;16.50;84.89;101863.00;4949737;28;20055;-71
2023/09/05 05:54:09;;;;;;;6.32;3.90;;;;;;;16.53;84.80;101851.41;4949484;28;20050;-71
2023/09/05 05:56:36;;;;;;;7.03;3.47;;;;;;;16.57;84.63;101853.00;4932910;28;20051;-71
2023/09/05 05:59:04;;;;;;;8.18;3.88;;;;;;;16.61;84.65;101854.63;4954276;28;20114;-71
2023/09/05 06:01:34;;;;;;;6.90;3.60;;;;;;;16.64;84.77;101856.28;4951837;28;20113;-71
2023/09/05 06:04:01;;;;;;;6.22;3.50;;;;;;;16.69;84.55;101852.50;4949633;28;20069;-71
2023/09/05 06:06:28;;;;;;;5.57;3.13;;;;;;;16.76;84.45;101853.13;4957341;28;20097;-71
2023/09/05 06:08:55;;;;;;;6.05;3.45;;;;;;;16.79;84.66;101842.34;4963601;28;20043;-71
2023/09/05 06:11:23;;;;;;;5.05;3.50;;;;;;;16.86;84.74;101850.94;4966056;28;20102;-71
2023/09/05 06:13:51;;;;;;;6.50;3.65;;;;;;;16.92;84.13;101854.25;4948520;28;20079;-71
2023/09/05 06:16:21;;;;;;;5.22;3.33;;;;;;;16.99;84.01;101860.22;4947449;28;20078;-71
2023/09/05 06:18:48;;;;;;;6.72;3.40;;;;;;;17.08;83.98;101861.66;4959901;28;20570;-71
2023/09/05 06:21:15;;;;;;;5.30;3.50;;;;;;;17.17;83.72;101857.72;4959851;28;20234;-71
2023/09/05 06:23:42;;;;;;;4.22;2.85;;;;;;;17.26;83.48;101861.78;4951813;28;20047;-71
2023/09/05 06:26:09;;;;;;;5.00;3.15;;;;;;;17.36;82.85;101863.13;4962585;28;20061;-71
2023/09/05 06:28:37;;;;;;;4.53;3.30;;;;;;;17.45;82.93;101859.22;4959591;28;20118;-71
2023/09/05 06:31:05;;;;;;;6.10;3.00;;;;;;;17.54;82.29;101861.50;4958011;28;20050;-71
2023/09/05 06:33:32;;;;;;;5.45;2.80;;;;;;;17.63;81.84;101858.41;4933009;28;20046;-71
2023/09/05 06:36:05;;;;;;;4.15;2.70;;;;;;;17.75;81.35;101856.13;4951884;28;20303;-71
2023/09/05 06:38:33;;;;;;;5.78;3.10;;;;;;;17.82;81.37;101854.91;4957101;28;20474;-71
2023/09/05 06:41:07;;;;;;;7.60;2.83;;;;;;;17.95;81.02;101855.22;4967931;28;20503;-71
2023/09/05 06:43:36;;;;;;;5.93;3.10;;;;;;;18.06;80.36;101852.97;4955483;28;20040;-71
2023/09/05 06:46:05;;;;;;;5.28;2.88;;;;;;;18.19;79.90;101847.06;4930155;29;20055;-72
2023/09/05 06:48:38;;;;;;;5.45;3.08;;;;;;;18.28;79.70;101850.16;4956503;28;20043;-72
2023/09/05 06:51:06;;;;;;;5.87;2.50;;;;;;;18.38;79.44;101839.06;4953369;28;20489;-71
2023/09/05 06:53:33;;;;;;;5.10;2.38;;;;;;;18.49;79.72;101844.75;4955729;28;20524;-71
2023/09/05 06:56:00;;;;;;;6.00;2.58;;;;;;;18.60;79.16;101846.91;4965839;28;20047;-72
2023/09/05 06:58:27;;;;;;;6.13;2.35;;;;;;;18.71;78.87;101843.72;4949895;28;20545;-72
2023/09/05 07:00:55;;;;;;;4.63;2.80;;;;;;;18.81;78.57;101850.34;4955168;28;20475;-72
2023/09/05 07:03:25;;;;;;;3.65;2.40;;;;;;;18.91;77.96;101838.25;4966157;28;20246;-72
2023/09/05 07:05:53;;;;;;;5.05;2.55;;;;;;;19.03;77.58;101835.94;4959803;28;20039;-71
2023/09/05 07:08:23;;;;;;;5.35;2.60;;;;;;;19.17;76.65;101838.78;4967528;28;20069;-72
2023/09/05 07:10:50;;;;;;;2.90;2.47;;;;;;;19.28;75.52;101840.91;4965443;28;20511;-72
2023/09/05 07:13:18;;;;;;;3.97;2.50;;;;;;;19.38;75.41;101844.84;4961846;28;20153;-72
2023/09/05 07:15:45;;;;;;;4.78;2.50;;;;;;;19.54;73.94;101841.34;4966141;28;20050;-72
2023/09/05 07:18:12;;;;;;;4.82;2.55;;;;;;;19.65;74.00;101833.63;4949290;28;20729;-72
2023/09/05 07:20:40;;;;;;;4.20;2.25;;;;;;;19.77;74.26;101841.94;4965986;28;20075;-72
2023/09/05 07:23:07;;;;;;;4.38;2.40;;;;;;;19.90;74.58;101834.16;4961993;28;20396;-72
2023/09/05 07:25:40;;;;;;;3.40;2.13;;;;;;;20.01;73.58;101843.34;4965437;28;20286;-72
2023/09/05 07:28:07;;;;;;;10.38;2.20;;;;;;;20.11;72.87;101834.81;4959766;28;20438;-72
2023/09/05 07:30:37;;;;;;;4.13;2.17;;;;;;;20.24;72.38;101837.66;4967254;28;20145;-71
2023/09/05 07:33:04;;;;;;;3.67;2.03;;;;;;;20.37;71.67;101837.84;4956084;28;20050;-72
2023/09/05 07:35:31;;;;;;;3.78;2.08;;;;;;;20.50;70.24;101846.91;4954576;28;20043;-72
2023/09/05 07:37:58;;;;;;;4.47;1.85;;;;;;;20.63;69.83;101842.59;4964916;28;20731;-72
2023/09/05 07:40:26;;;;;;;6.15;2.25;;;;;;;20.73;69.80;101834.88;4967072;28;20046;-71
2023/09/05 07:42:53;;;;;;;3.25;1.80;;;;;;;20.87;68.30;101834.13;4941130;28;20133;-71
2023/09/05 07:45:24;;;;;;;5.03;1.95;;;;;;;20.96;68.52;101838.06;4953994;28;20036;-72
2023/09/05 07:47:52;;;;;;;5.32;1.80;;;;;;;21.06;68.22;101841.94;4948530;28;20121;-72
2023/09/05 07:50:20;;;;;;;10.27;2.22;;;;;;;21.21;67.32;101844.69;4967036;28;20125;-72
2023/09/05 07:52:47;;;;;;;4.95;1.95;;;;;;;21.30;66.71;101837.88;4948275;28;20432;-72
2023/09/05 07:55:16;;;;;;;4.38;2.03;;;;;;;21.39;66.82;101835.53;4967265;28;20039;-72
2023/09/05 07:57:44;;;;;;;4.38;1.92;;;;;;;21.50;66.39;101831.34;4964550;28;20086;-72
2023/09/05 08:00:14;;;;;;;4.15;1.88;;;;;;;21.61;65.33;101839.63;4952174;28;20205;-72
2023/09/05 08:02:42;;;;;;;4.57;2.05;;;;;;;21.71;64.80;101839.91;4964081;28;20442;-72
2023/09/05 08:05:10;;;;;;;4.43;2.17;;;;;;;21.82;65.96;101833.88;4958058;28;20495;-72
2023/09/05 08:07:38;;;;;;;3.65;1.45;;;;;;;21.92;64.93;101823.41;4945038;28;20074;-72
2023/09/05 08:10:07;;;;;;;5.35;1.77;;;;;;;22.03;64.26;101826.28;4962304;28;20412;-72
2023/09/05 08:12:34;;;;;;;3.88;1.70;;;;;;;22.14;64.35;101818.41;4962900;28;20050;-72
2023/09/05 08:15:01;;;;;;;5.55;1.85;;;;;;;22.24;63.03;101820.50;4963430;28;20057;-72
2023/09/05 08:17:30;;;;;;;5.00;1.90;;;;;;;22.31;62.87;101820.03;4964885;28;20054;-72
2023/09/05 08:19:58;;;;;;;3.83;2.00;;;;;;;22.41;62.30;101822.97;4964516;28;20055;-72
2023/09/05 08:22:25;;;;;;;4.13;1.60;;;;;;;22.54;62.44;101819.50;4951598;28;20476;-72
2023/09/05 08:24:52;;;;;;;7.60;2.00;;;;;;;22.64;61.06;101821.47;4937653;28;20452;-72
2023/09/05 08:27:28;;;;;;;3.25;1.60;;;;;;;22.73;61.41;101824.53;4953074;28;20053;-72
2023/09/05 08:29:57;;;;;;;4.10;1.90;;;;;;;22.82;61.57;101828.41;4948710;28;20049;-72
2023/09/05 08:32:25;;;;;;;3.17;1.63;;;;;;;22.92;60.11;101822.34;4964137;28;20042;-71
2023/09/05 08:34:52;;;;;;;3.00;1.77;;;;;;;23.01;60.50;101826.19;4957443;28;20047;-76
2023/09/05 08:37:20;;;;;;;3.00;1.73;;;;;;;23.10;60.67;101822.03;4955288;28;20050;-71
2023/09/05 08:39:48;;;;;;;3.05;1.65;;;;;;;23.20;59.65;101819.59;4941310;28;20602;-72
2023/09/05 08:42:15;;;;;;;3.35;1.70;;;;;;;23.26;59.58;101825.41;4953617;28;20660;-71
2023/09/05 08:44:43;;;;;;;2.88;1.60;;;;;;;23.37;58.80;101818.44;4945292;28;20526;-71
2023/09/05 08:47:10;;;;;;;6.00;1.60;;;;;;;23.47;58.57;101810.59;4946236;28;20093;-71
2023/09/05 08:49:38;;;;;;;4.05;1.55;;;;;;;23.62;57.67;101816.75;4963542;28;20098;-72
2023/09/05 08:52:10;;;;;;;5.85;1.42;;;;;;;23.73;57.09;101820.38;4964376;28;20657;-71
2023/09/05 08:54:38;;;;;;;2.80;1.60;;;;;;;23.83;58.00;101831.38;4965437;28;20542;-71
2023/09/05 08:57:06;;;;;;;3.38;1.85;;;;;;;23.92;57.23;101835.22;4957960;28;20051;-71
2023/09/05 08:59:33;;;;;;;4.63;1.80;;;;;;;24.03;56.47;101834.50;4959269;28;20533;-72
2023/09/05 09:02:01;;;;;;;3.92;1.60;;;;;;;24.10;56.26;101835.75;4962672;28;20055;-72
2023/09/05 09:04:29;;;;;;;3.55;1.73;;;;;;;24.21;57.46;101834.13;4960291;28;20158;-72
2023/09/05 09:07:00;;;;;;;2.53;1.65;;;;;;;24.30;56.60;101834.31;4961737;28;20368;-71
2023/09/05 09:09:36;;;;;;;4.20;1.60;;;;;;;24.41;56.76;101838.06;4963156;28;20419;-71
2023/09/05 09:12:04;;;;;;;3.67;1.52;;;;;;;24.51;56.56;101831.03;4953456;28;20071;-71
2023/09/05 09:14:32;;;;;;;3.25;1.48;;;;;;;24.60;56.14;101834.84;4945690;28;20050;-71
2023/09/05 09:17:01;;;;;;;5.72;1.55;;;;;;;24.70;55.26;101832.38;4956254;28;20049;-72
2023/09/05 09:19:29;;;;;;;5.15;1.70;;;;;;;24.76;54.36;101835.47;4962002;28;20051;-71
2023/09/05 09:22:02;;;;;;;4.95;1.60;;;;;;;24.85;54.60;101831.19;4957241;28;20051;-72
2023/09/05 09:24:35;;;;;;;3.33;1.42;;;;;;;24.94;53.91;101833.19;4946978;28;20426;-72
2023/09/05 09:27:04;;;;;;;2.60;1.40;;;;;;;25.06;52.79;101836.81;4946252;28;20138;-72
2023/09/05 09:29:33;;;;;;;4.18;1.50;;;;;;;25.14;53.09;101832.66;4930197;28;20074;-72
2023/09/05 09:32:06;;;;;;;4.90;1.65;;;;;;;25.24;53.14;101828.28;4949641;28;20314;-72
2023/09/05 09:34:38;;;;;;;;;;;;;;;25.31;53.86;101828.66;4947511;28;20039;-72
2023/09/05 09:37:05;;;;;;;4.25;1.20;;;;;;;25.40;52.71;101820.72;4954293;28;19929;-72
2023/09/05 09:39:33;;;;;;;5.25;1.60;;;;;;;25.51;52.11;101819.03;4955537;28;20051;-71
2023/09/05 09:42:00;;;;;;;1.88;1.30;;;;;;;25.59;52.27;101816.56;4961188;28;20051;-72
2023/09/05 09:44:34;;;;;;;3.22;1.27;;;;;;;25.70;52.42;101810.34;4962245;28;20101;-72
2023/09/05 09:47:02;;;;;;;2.22;1.33;;;;;;;25.81;52.97;101817.56;4957997;28;20639;-71
2023/09/05 09:49:31;;;;;;;2.67;1.45;;;;;;;25.93;51.66;101813.88;4963178;28;20093;-72
2023/09/05 09:52:04;;;;;;;3.25;1.30;;;;;;;26.00;52.12;101820.50;4953550;28;20075;-72
2023/09/05 09:54:39;;;;;;;3.95;1.48;;;;;;;26.11;51.02;101819.69;4962214;28;20057;-71
2023/09/05 09:57:12;;;;;;;4.43;1.40;;;;;;;26.18;50.29;101811.94;4965835;28;20511;-72
2023/09/05 09:59:48;;;;;;;2.50;1.42;;;;;;;26.28;50.44;101818.31;4939484;29;20043;-71
2023/09/05 10:02:16;;;;;;;3.20;1.42;;;;;;;26.34;50.63;101811.53;4959922;28;20054;-72
2023/09/05 10:04:46;;;;;;;3.78;1.52;;;;;;;26.43;50.15;101805.38;4954248;28;20046;-72
2023/09/05 10:07:15;;;;;;;2.38;1.30;;;;;;;26.53;49.70;101805.44;4962506;28;20050;-72
2023/09/05 10:09:45;;;;;;;3.47;1.20;;;;;;;26.60;49.68;101812.06;4952028;28;20047;-72
2023/09/05 10:12:20;;;;;;;3.35;1.30;;;;;;;26.71;49.21;101803.03;4959462;28;20043;-71
2023/09/05 10:14:48;;;;;;;2.58;1.20;;;;;;;26.80;49.26;101806.88;4938237;28;20035;-71
2023/09/05 10:17:20;;;;;;;6.90;1.65;;;;;;;26.88;49.48;101812.47;4931883;28;21139;-72
2023/09/05 10:19:51;;;;;;;4.00;1.30;;;;;;;27.01;48.62;101806.03;4961637;28;20488;-72
2023/09/05 10:22:19;;;;;;;3.38;1.40;;;;;;;27.06;47.95;101795.66;4936091;29;20113;-71
2023/09/05 10:24:47;;;;;;;1.58;1.27;;;;;;;27.11;47.63;101804.25;4960436;28;20034;-72
2023/09/05 10:27:15;;;;;;;4.00;1.30;;;;;;;27.14;47.00;101803.97;4953315;28;20154;-71
2023/09/05 10:29:45;;;;;;;4.25;1.40;;;;;;;27.17;47.52;101798.28;4950871;28;21721;-71
2023/09/05 10:32:18;;;;;;;3.17;1.42;;;;;;;27.24;47.34;101804.88;4956180;28;20043;-72
2023/09/05 10:34:45;;;;;;;4.57;1.30;;;;;;;27.32;47.99;101803.38;4955690;28;20447;-71
2023/09/05 10:37:18;;;;;;;4.00;1.52;;;;;;;27.43;46.78;101804.19;4963580;28;20054;-71
2023/09/05 10:39:57;;;;;;;2.03;1.27;;;;;;;27.53;46.54;101806.06;4965494;28;20133;-72
2023/09/05 10:42:32;;;;;;;3.55;1.35;;;;;;;27.58;46.89;101801.09;4967105;28;20082;-72
2023/09/05 10:45:22;;;;;;;3.58;1.38;;;;;;;27.67;46.86;101810.28;4962276;28;20097;-71
2023/09/05 10:47:53;;;;;;;2.10;1.20;;;;;;;27.75;47.10;101802.31;4959530;28;20079;-72
2023/09/05 10:50:23;;;;;;;2.67;1.40;;;;;;;27.87;46.76;101801.22;4953194;28;20047;-71
2023/09/05 10:53:11;;;;;;;3.03;1.13;;;;;;;27.97;46.24;101801.28;4949899;28;20059;-71
2023/09/05 10:55:50;;;;;;;4.15;1.30;;;;;;;28.01;46.51;101800.00;4965712;28;20392;-72
2023/09/05 10:58:42;;;;;;;2.53;1.23;;;;;;;28.11;45.78;101797.34;4959916;28;20107;-71
2023/09/05 11:01:31;;;;;;;2.20;1.15;;;;;;;28.20;45.91;101798.34;4946116;28;20043;-72
2023/09/05 11:04:07;;;;;;;2.33;1.40;;;;;;;28.25;45.18;101795.22;4958295;28;20097;-72
2023/09/05 11:06:34;;;;;;;2.17;1.15;;;;;;;28.29;44.13;101785.81;4958768;28;20113;-72
2023/09/05 11:09:06;;;;;;;2.38;1.10;;;;;;;28.32;44.87;101796.41;4942599;28;20066;-72
2023/09/05 11:11:36;;;;;;;1.35;1.00;;;;;;;28.40;44.08;101795.66;4959720;28;20047;-71
2023/09/05 11:14:04;;;;;;;2.03;1.00;;;;;;;28.45;44.53;101790.69;4962408;28;20078;-72
2023/09/05 11:16:49;;;;;;;3.28;1.15;;;;;;;28.56;44.06;101792.41;4955407;28;20031;-72
2023/09/05 11:19:45;;;;;;;3.72;1.20;;;;;;;28.64;43.69;101792.56;4954850;28;20125;-72
2023/09/05 11:22:25;;;;;;;2.67;1.20;;;;;;;28.71;43.35;101790.13;4956104;28;20046;-71
2023/09/05 11:24:58;;;;;;;2.53;1.30;;;;;;;28.79;43.64;101787.59;4964919;28;20073;-71
2023/09/05 11:27:30;;;;;;;3.25;1.10;;;;;;;28.88;44.30;101783.16;4961758;28;20039;-72
2023/09/05 11:30:06;;;;;;;4.55;1.20;;;;;;;29.00;43.78;101784.72;4954990;28;20051;-72
2023/09/05 11:32:38;;;;;;;4.78;1.10;;;;;;;29.11;42.90;101781.84;4945186;28;20122;-72
2023/09/05 11:35:06;;;;;;;3.55;1.17;;;;;;;29.20;43.00;101782.78;4949633;28;20039;-72
2023/09/05 11:37:34;;;;;;;5.38;1.30;;;;;;;29.27;42.36;101773.06;4927770;28;20583;-72